Time;durP1;ratioP1;P1;durP2;ratioP2;P2;SDS_P1;SDS_P2;PMS_P1;PMS_P2;Temp;Humidity;BMP_temperature;BMP_pressure;BME280_temperature;BME280_humidity;BME280_pressure;Samples;Min_cycle;Max_cycle;Signal;HPM_P1;HPM_P2
2022/09/20 00:01:26;;;;;;;0.83;0.80;;;11.90;99.90;12.10;102156.00;;;;5050851;28;20175;-70
2022/09/20 00:03:56;;;;;;;0.40;0.40;;;11.90;99.90;11.80;102153.00;;;;5051059;28;20182;-71
2022/09/20 00:06:29;;;;;;;0.50;0.50;;;11.70;99.90;11.70;102154.00;;;;5034539;28;20222;-71
2022/09/20 00:08:55;;;;;;;0.50;0.50;;;11.60;99.90;11.60;102152.00;;;;5034424;28;20177;-70
2022/09/20 00:11:25;;;;;;;0.80;0.80;;;11.60;99.90;12.10;102147.00;;;;5035238;28;20178;-70
2022/09/20 00:13:55;;;;;;;1.17;1.17;;;11.70;99.90;11.80;102151.00;;;;5050724;28;20178;-70
2022/09/20 00:16:31;;;;;;;0.40;0.40;;;11.70;99.90;11.50;102146.00;;;;5050801;28;20274;-70
2022/09/20 00:18:59;;;;;;;0.43;0.43;;;11.60;99.90;11.60;102141.00;;;;5034185;28;20547;-71
2022/09/20 00:21:29;;;;;;;0.40;0.40;;;11.50;99.90;11.50;102149.00;;;;5034261;28;20184;-71
2022/09/20 00:23:59;;;;;;;0.30;0.30;;;11.50;99.90;11.50;102148.00;;;;5051042;28;20183;-70
2022/09/20 00:26:26;;;;;;;0.60;0.60;;;11.50;99.90;11.70;102082.00;;;;5050077;28;20237;-70
2022/09/20 00:28:53;;;;;;;0.40;0.40;;;11.50;99.90;11.60;102148.00;;;;5034006;28;20182;-70
2022/09/20 00:31:19;;;;;;;0.40;0.40;;;11.50;99.90;11.90;102096.00;;;;5033779;28;20618;-70
2022/09/20 00:36:32;;;;;;;0.40;0.40;;;11.60;99.90;11.70;102142.00;;;;5048016;28;20238;-71
2022/09/20 00:39:01;;;;;;;0.43;0.43;;;11.50;99.90;11.60;102152.00;;;;5033555;28;20582;-71
2022/09/20 00:41:29;;;;;;;0.60;0.60;;;11.50;99.90;11.70;102140.00;;;;5050285;28;20201;-71
2022/09/20 00:43:56;;;;;;;0.30;0.30;;;11.40;99.90;11.50;102141.00;;;;5034770;28;20657;-70
2022/09/20 00:46:30;;;;;;;0.40;0.40;;;11.40;99.90;11.70;102141.00;;;;5050701;28;20642;-70
2022/09/20 00:49:14;;;;;;;0.43;0.43;;;11.50;99.90;11.70;102146.00;;;;5034890;28;20178;-70
2022/09/20 00:51:49;;;;;;;4.00;1.17;;;11.40;99.90;11.70;102139.00;;;;5033405;28;20202;-70
2022/09/20 00:54:19;;;;;;;0.50;0.50;;;11.40;99.90;11.50;102137.00;;;;5050445;28;20226;-70
2022/09/20 00:56:45;;;;;;;0.50;0.50;;;11.40;99.90;11.50;102146.00;;;;5049197;28;20175;-70
2022/09/20 00:59:24;;;;;;;0.40;0.40;;;11.40;99.90;11.60;102136.00;;;;5050167;28;20185;-70
2022/09/20 01:02:11;;;;;;;1.30;1.30;;;11.40;99.90;11.70;102143.00;;;;5049691;28;20317;-70
2022/09/20 01:04:40;;;;;;;0.40;0.40;;;11.50;99.90;12.00;102125.00;;;;5050354;28;20178;-71
2022/09/20 01:07:08;;;;;;;0.40;0.40;;;11.60;99.90;12.50;102138.00;;;;5049952;28;20177;-71
2022/09/20 01:09:34;;;;;;;0.43;0.43;;;11.90;99.90;12.10;102138.00;;;;5049819;28;20183;-71
2022/09/20 01:12:06;;;;;;;1.03;0.80;;;11.90;99.90;12.30;102138.00;;;;5033162;28;20230;-70
2022/09/20 01:14:33;;;;;;;0.40;0.40;;;11.90;99.90;12.00;102130.00;;;;5050029;28;20200;-70
2022/09/20 01:17:04;;;;;;;0.50;0.50;;;11.90;99.90;11.80;102132.00;;;;5049741;28;20205;-70
2022/09/20 01:19:36;;;;;;;1.50;0.73;;;11.80;99.90;11.70;102101.00;;;;5049821;28;20574;-70
2022/09/20 01:22:30;;;;;;;1.03;0.93;;;11.60;99.90;11.90;102131.00;;;;5034118;28;20183;-70
2022/09/20 01:25:14;;;;;;;1.27;1.17;;;11.70;99.90;12.00;102141.00;;;;5032957;28;20200;-69
2022/09/20 01:27:46;;;;;;;0.40;0.40;;;11.70;99.90;12.00;102129.00;;;;5049259;28;20168;-70
2022/09/20 01:30:24;;;;;;;1.10;1.00;;;11.70;99.90;12.70;102143.00;;;;5049508;28;20174;-70
2022/09/20 01:33:11;;;;;;;0.40;0.40;;;12.00;99.90;12.20;102135.00;;;;5048886;28;20249;-70
2022/09/20 01:35:40;;;;;;;0.83;0.83;;;12.00;99.90;12.10;102143.00;;;;5034201;28;20260;-70
2022/09/20 01:38:44;;;;;;;1.07;1.07;;;11.80;99.90;12.10;102142.00;;;;5049378;28;20232;-70
2022/09/20 01:41:31;;;;;;;0.40;0.40;;;11.80;99.90;12.60;102134.00;;;;5031446;28;20198;-70
2022/09/20 01:45:03;;;;;;;0.50;0.50;;;12.10;99.90;13.10;102142.00;;;;5015109;28;20636;-69
2022/09/20 01:47:53;;;;;;;0.50;0.50;;;12.30;99.90;13.50;102144.00;;;;5021609;28;20204;-70
2022/09/20 01:50:43;;;;;;;0.50;0.50;;;12.60;99.90;13.40;102100.00;;;;5032691;28;20182;-70
2022/09/20 01:53:38;;;;;;;1.03;1.03;;;12.70;99.90;13.10;102141.00;;;;5033294;28;20210;-70
2022/09/20 01:56:43;;;;;;;2.00;1.90;;;12.70;99.90;12.30;102138.00;;;;5033426;28;20715;-70
2022/09/20 01:59:30;;;;;;;0.67;0.67;;;12.30;99.90;12.70;102137.00;;;;5033492;28;20263;-70
2022/09/20 02:02:09;;;;;;;0.93;0.93;;;12.20;99.90;12.50;102130.00;;;;5048812;28;20199;-70
2022/09/20 02:05:05;;;;;;;0.60;0.60;;;12.20;99.90;13.10;102134.00;;;;5048834;28;20590;-70
2022/09/20 02:07:54;;;;;;;0.77;0.77;;;12.30;99.90;12.80;102120.00;;;;5033083;28;20185;-70
2022/09/20 02:11:03;;;;;;;0.53;0.53;;;12.40;99.90;13.10;102128.00;;;;5033513;28;20213;-70
2022/09/20 02:13:38;;;;;;;0.73;0.73;;;12.60;99.90;12.80;102128.00;;;;5048685;28;20206;-70
2022/09/20 02:16:22;;;;;;;0.50;0.50;;;12.40;99.90;12.90;102126.00;;;;5048759;28;20190;-70
2022/09/20 02:19:36;;;;;;;0.50;0.50;;;12.50;99.90;12.80;102126.00;;;;5048651;28;20182;-70
2022/09/20 02:22:28;;;;;;;0.60;0.60;;;12.40;99.90;13.50;102076.00;;;;5031743;28;20205;-70
2022/09/20 02:25:41;;;;;;;0.77;0.77;;;12.60;99.90;13.40;102120.00;;;;5048812;28;20164;-70
2022/09/20 02:28:43;;;;;;;0.63;0.63;;;12.80;99.90;13.30;102121.00;;;;5033029;28;20182;-70
2022/09/20 02:31:40;;;;;;;0.47;0.47;;;12.70;99.90;12.40;102119.00;;;;5033031;28;20258;-70
2022/09/20 02:34:18;;;;;;;0.40;0.40;;;12.30;99.90;12.40;102126.00;;;;5033008;28;20198;-70
2022/09/20 02:36:58;;;;;;;0.40;0.40;;;12.20;99.90;12.80;102110.00;;;;5032990;28;20174;-71
2022/09/20 02:39:44;;;;;;;0.70;0.70;;;12.40;99.90;12.90;102114.00;;;;5033086;28;20309;-70
2022/09/20 02:42:34;;;;;;;0.50;0.50;;;12.40;99.90;12.90;102121.00;;;;5048377;28;20189;-70
2022/09/20 02:45:11;;;;;;;0.50;0.50;;;12.40;99.90;13.70;102114.00;;;;5048514;28;20198;-70
2022/09/20 02:47:43;;;;;;;0.50;0.50;;;12.80;99.90;13.50;102106.00;;;;5033013;28;20700;-70
2022/09/20 02:50:37;;;;;;;1.30;1.20;;;12.80;99.90;13.60;102102.00;;;;5048614;28;20188;-70
2022/09/20 02:53:24;;;;;;;0.50;0.50;;;13.10;99.90;13.40;102112.00;;;;5048225;28;20562;-69
2022/09/20 02:56:17;;;;;;;0.70;0.70;;;12.80;99.90;13.30;102105.00;;;;5048530;28;20193;-70
2022/09/20 02:58:57;;;;;;;0.50;0.50;;;12.90;99.90;12.80;102061.00;;;;5048039;28;20278;-70
2022/09/20 03:01:54;;;;;;;0.53;0.53;;;12.50;99.90;12.60;102101.00;;;;5048087;28;20185;-70
2022/09/20 03:04:52;;;;;;;0.60;0.60;;;12.40;99.90;13.50;102108.00;;;;5031581;28;20666;-70
2022/09/20 03:07:48;;;;;;;0.50;0.50;;;12.60;99.90;12.90;102111.00;;;;5048123;28;20282;-70
2022/09/20 03:10:30;;;;;;;0.60;0.60;;;12.60;99.90;12.20;102106.00;;;;5032712;28;20658;-70
2022/09/20 03:13:24;;;;;;;0.40;0.40;;;12.10;99.90;12.10;102101.00;;;;5031612;28;20317;-70
2022/09/20 03:16:17;;;;;;;0.40;0.40;;;11.90;99.90;11.90;102076.00;;;;5032786;28;20182;-70
2022/09/20 03:19:10;;;;;;;0.40;0.40;;;11.90;99.90;11.90;102106.00;;;;5049683;28;20183;-70
2022/09/20 03:22:01;;;;;;;0.63;0.63;;;11.80;99.90;11.70;102108.00;;;;5051665;28;20548;-70
2022/09/20 03:24:51;;;;;;;0.60;0.60;;;11.70;99.90;11.90;102105.00;;;;5035318;28;20270;-70
2022/09/20 03:27:43;;;;;;;1.27;1.07;;;11.70;99.90;11.80;102104.00;;;;5051813;28;20196;-70
2022/09/20 03:30:40;;;;;;;0.73;0.73;;;11.70;99.90;11.90;102111.00;;;;5051915;28;20182;-70
2022/09/20 03:33:33;;;;;;;0.47;0.47;;;11.60;99.90;11.70;102101.00;;;;5036062;28;20298;-69
2022/09/20 03:36:53;;;;;;;0.30;0.30;;;11.60;99.90;11.70;102110.00;;;;5051213;28;20206;-70
2022/09/20 03:40:04;;;;;;;0.40;0.40;;;11.50;99.90;11.70;102097.00;;;;5017230;28;20286;-70
2022/09/20 03:42:31;;;;;;;1.07;1.07;;;11.50;99.90;12.10;102061.00;;;;5036522;28;20238;-70
2022/09/20 03:45:18;;;;;;;0.40;0.40;;;11.50;99.90;11.60;102099.00;;;;5036142;28;20178;-70
2022/09/20 03:47:58;;;;;;;0.40;0.40;;;11.40;99.90;11.90;102101.00;;;;5036104;28;20661;-70
2022/09/20 03:50:53;;;;;;;0.40;0.40;;;11.40;99.90;12.00;102100.00;;;;5035723;28;20178;-70
2022/09/20 03:53:52;;;;;;;0.50;0.50;;;11.50;99.90;12.20;102103.00;;;;5051452;28;20203;-70
2022/09/20 03:56:57;;;;;;;0.50;0.50;;;11.60;99.90;12.30;102099.00;;;;5035730;28;20252;-70
2022/09/20 04:00:00;;;;;;;0.70;0.70;;;11.70;99.90;12.70;102096.00;;;;5034299;28;20193;-70
2022/09/20 04:02:59;;;;;;;0.57;0.57;;;11.90;99.90;11.30;102084.00;;;;5050600;28;20193;-70
2022/09/20 04:05:58;;;;;;;0.40;0.40;;;11.40;99.90;10.90;102047.00;;;;5033855;28;20217;-70
2022/09/20 04:08:42;;;;;;;2.70;1.80;;;11.10;99.90;10.90;102110.00;;;;5050826;28;20188;-70
2022/09/20 04:11:53;;;;;;;0.57;0.57;;;11.00;99.90;10.90;102104.00;;;;5035436;28;20631;-69
2022/09/20 04:14:58;;;;;;;24.97;14.27;;;11.00;99.90;11.00;102069.00;;;;5035594;28;20553;-69
2022/09/20 04:17:45;;;;;;;0.50;0.50;;;10.90;99.90;11.90;102073.00;;;;5035312;28;20635;-70
2022/09/20 04:20:33;;;;;;;0.50;0.50;;;11.20;99.90;12.20;102106.00;;;;5050875;28;20187;-70
2022/09/20 04:23:34;;;;;;;0.70;0.70;;;11.50;99.90;11.80;102105.00;;;;5050909;28;20623;-70
2022/09/20 04:26:02;;;;;;;0.70;0.70;;;11.40;99.90;11.10;102112.00;;;;5034690;28;20205;-69
2022/09/20 04:29:13;;;;;;;0.67;0.67;;;11.00;99.90;10.90;102108.00;;;;5034200;28;20197;-70
2022/09/20 04:31:52;;;;;;;0.30;0.30;;;10.90;99.90;10.90;102103.00;;;;5034437;28;20277;-70
2022/09/20 04:36:27;;;;;;;0.73;0.73;;;10.80;99.90;10.90;102096.00;;;;5050418;28;20183;-70
2022/09/20 04:37:38;;;;;;;0.83;0.53;;;10.70;99.90;11.00;102100.00;;;;5047496;28;20199;-70
2022/09/20 04:40:17;;;;;;;0.87;0.83;;;10.70;99.90;10.80;102043.00;;;;5050647;28;20753;-70
2022/09/20 04:43:16;;;;;;;0.60;0.60;;;10.70;99.90;11.00;102105.00;;;;5034905;28;20597;-70
2022/09/20 04:46:10;;;;;;;0.80;0.80;;;10.70;99.90;11.00;102111.00;;;;5034836;28;20210;-70
2022/09/20 04:48:48;;;;;;;0.60;0.60;;;10.80;99.90;10.80;102101.00;;;;5035199;28;20210;-70
2022/09/20 04:52:02;;;;;;;0.40;0.40;;;10.70;99.90;10.90;102103.00;;;;5049863;28;20183;-70
2022/09/20 04:55:21;;;;;;;2.57;2.40;;;10.70;99.90;10.90;102108.00;;;;5050531;28;20270;-70
2022/09/20 04:58:31;;;;;;;0.40;0.40;;;10.70;99.90;11.00;102108.00;;;;5050203;28;20189;-69
2022/09/20 05:01:42;;;;;;;0.70;0.70;;;10.70;99.90;10.90;102117.00;;;;5050048;28;20179;-70
2022/09/20 05:04:22;;;;;;;1.00;1.00;;;10.80;99.90;11.20;102120.00;;;;5032560;28;20666;-70
2022/09/20 05:07:34;;;;;;;0.77;0.77;;;10.80;99.90;11.00;102117.00;;;;5034381;28;20232;-69
2022/09/20 05:10:27;;;;;;;0.50;0.50;;;10.80;99.90;11.30;102116.00;;;;5050063;28;20682;-70
2022/09/20 05:13:22;;;;;;;0.50;0.50;;;10.80;99.90;10.90;102111.00;;;;5049782;28;20206;-70
2022/09/20 05:16:05;;;;;;;0.50;0.50;;;10.70;99.90;10.90;102112.00;;;;5049856;28;20193;-69
2022/09/20 05:19:21;;;;;;;0.40;0.40;;;10.70;99.90;11.00;102121.00;;;;5049774;28;20265;-69
2022/09/20 05:22:22;;;;;;;0.43;0.43;;;10.70;99.90;11.10;102108.00;;;;5032016;28;20632;-68
2022/09/20 05:25:27;;;;;;;1.60;1.43;;;10.80;99.90;11.80;102071.00;;;;5012255;28;20196;-69
2022/09/20 05:28:05;;;;;;;0.40;0.40;;;11.10;99.90;11.50;102111.00;;;;5025553;28;20187;-69
2022/09/20 05:30:48;;;;;;;0.70;0.70;;;11.10;99.90;11.40;102109.00;;;;5014643;28;20172;-69
2022/09/20 05:33:38;;;;;;;0.47;0.47;;;11.10;99.90;11.10;102120.00;;;;5012946;28;20231;-68
2022/09/20 05:36:38;;;;;;;0.60;0.60;;;11.00;99.90;11.50;102118.00;;;;5014220;28;20182;-69
2022/09/20 05:39:27;;;;;;;0.63;0.63;;;11.10;99.90;11.40;102114.00;;;;4996444;28;20631;-69
2022/09/20 05:42:08;;;;;;;0.60;0.60;;;11.10;99.90;11.50;102065.00;;;;5012536;28;20270;-68
2022/09/20 05:45:09;;;;;;;0.50;0.50;;;11.10;99.90;11.20;102112.00;;;;5013363;28;20619;-69
2022/09/20 05:47:54;;;;;;;0.60;0.60;;;11.10;99.90;11.50;102043.00;;;;5013831;28;20256;-69
2022/09/20 05:50:35;;;;;;;0.50;0.50;;;11.10;99.90;11.50;102127.00;;;;5013025;28;20178;-69
2022/09/20 05:53:55;;;;;;;0.60;0.60;;;11.10;99.90;11.30;102126.00;;;;5012671;28;20212;-69
2022/09/20 05:56:41;;;;;;;0.60;0.60;;;11.20;99.90;11.60;102128.00;;;;5012888;28;20189;-69
2022/09/20 05:59:19;;;;;;;0.60;0.60;;;11.10;99.90;11.10;102131.00;;;;5013920;28;20179;-69
2022/09/20 06:02:41;;;;;;;0.60;0.60;;;11.00;99.90;12.10;102125.00;;;;5013791;28;20187;-69
2022/09/20 06:05:58;;;;;;;0.80;0.80;;;11.30;99.90;12.60;102126.00;;;;5012382;28;20641;-69
2022/09/20 06:08:48;;;;;;;2.10;2.00;;;11.70;99.90;13.20;102138.00;;;;5045442;28;20654;-69
2022/09/20 06:11:32;;;;;;;0.70;0.70;;;12.10;99.90;12.20;102119.00;;;;5012705;28;20524;-69
2022/09/20 06:14:31;;;;;;;0.90;0.90;;;11.90;99.90;11.60;102125.00;;;;5012067;28;20189;-69
2022/09/20 06:17:09;;;;;;;0.83;0.83;;;11.60;99.90;11.40;102136.00;;;;5013653;28;20635;-69
2022/09/20 06:19:45;;;;;;;0.87;0.87;;;11.30;99.90;11.40;102139.00;;;;5012460;28;20639;-69
2022/09/20 06:22:20;;;;;;;0.50;0.50;;;11.30;99.90;12.00;102095.00;;;;4996107;28;20194;-69
2022/09/20 06:25:08;;;;;;;2.50;2.30;;;11.40;99.90;12.10;102145.00;;;;5012308;28;20173;-69
2022/09/20 06:27:55;;;;;;;1.70;1.60;;;11.50;99.90;13.00;102150.00;;;;5013447;28;20180;-69
2022/09/20 06:30:33;;;;;;;13.20;5.37;;;12.10;99.90;13.20;102142.00;;;;5012105;28;20622;-68
2022/09/20 06:33:16;;;;;;;0.50;0.50;;;12.30;99.90;13.30;102143.00;;;;5012049;28;20214;-69
2022/09/20 06:42:11;;;;;;;0.67;0.67;;;12.70;99.90;13.90;102144.00;;;;5013501;28;20604;-69
2022/09/20 06:44:42;;;;;;;0.97;0.90;;;12.90;99.90;14.70;102147.00;;;;5011953;28;20274;-69
2022/09/20 06:47:14;;;;;;;0.47;0.47;;;13.60;99.90;13.40;102151.00;;;;5012081;28;20167;-69
2022/09/20 06:49:41;;;;;;;1.60;1.17;;;13.40;99.90;12.90;102152.00;;;;5013366;28;20195;-69
2022/09/20 06:52:18;;;;;;;0.90;0.90;;;13.10;99.90;12.60;102141.00;;;;5013363;28;20201;-70
2022/09/20 06:54:53;;;;;;;1.47;0.90;;;12.80;99.90;12.30;102154.00;;;;5015145;28;20271;-69
2022/09/20 06:57:33;;;;;;;3.00;2.07;;;12.50;99.90;12.20;102153.00;;;;4999479;28;20232;-68
2022/09/20 06:59:59;;;;;;;0.30;0.30;;;12.40;99.90;12.30;102083.00;;;;5015853;28;20173;-69
2022/09/20 07:02:26;;;;;;;0.30;0.30;;;12.40;99.90;12.60;102151.00;;;;4999512;28;20212;-69
2022/09/20 07:04:58;;;;;;;0.63;0.63;;;12.50;99.90;12.10;102159.00;;;;5016002;28;20215;-69
2022/09/20 07:07:24;;;;;;;0.30;0.30;;;12.30;99.90;12.40;102160.00;;;;5015848;28;20628;-69
2022/09/20 07:09:50;;;;;;;0.50;0.50;;;12.40;99.90;12.70;102171.00;;;;5016034;28;20175;-69
2022/09/20 07:12:17;;;;;;;0.40;0.40;;;12.40;99.90;13.80;102172.00;;;;5015202;28;20687;-70
2022/09/20 07:14:45;;;;;;;0.73;0.73;;;12.90;99.90;13.80;102175.00;;;;5015663;28;20274;-70
2022/09/20 07:17:12;;;;;;;1.87;1.77;;;13.20;99.90;13.10;102175.00;;;;5015554;28;20537;-69
2022/09/20 07:19:38;;;;;;;0.80;0.80;;;13.00;99.90;13.70;102169.00;;;;5015534;28;20185;-70
2022/09/20 07:22:04;;;;;;;0.50;0.50;;;13.00;99.90;13.70;102189.00;;;;5016713;28;20185;-70
2022/09/20 07:24:31;;;;;;;0.50;0.50;;;13.30;99.90;13.90;102187.00;;;;5015504;28;20183;-70
2022/09/20 07:27:03;;;;;;;0.97;0.70;;;13.30;99.90;13.30;102170.00;;;;4999103;28;20196;-69
2022/09/20 07:29:35;;;;;;;0.60;0.60;;;13.10;99.90;13.40;102191.00;;;;5015340;28;20188;-70
2022/09/20 07:32:01;;;;;;;0.40;0.40;;;13.00;99.90;14.10;102191.00;;;;5015201;28;20647;-70
2022/09/20 07:34:27;;;;;;;0.50;0.50;;;13.30;99.90;14.50;102201.00;;;;4998654;28;20182;-70
2022/09/20 07:36:52;;;;;;;0.60;0.60;;;13.70;99.90;14.80;102193.00;;;;5015324;28;20273;-70
2022/09/20 07:39:21;;;;;;;0.50;0.50;;;14.00;99.90;15.50;102209.00;;;;5016472;28;20266;-70
2022/09/20 07:41:49;;;;;;;0.60;0.60;;;14.30;99.90;15.80;102219.00;;;;5015136;28;20535;-69
2022/09/20 07:44:26;;;;;;;0.80;0.80;;;14.70;99.90;15.90;102220.00;;;;5015087;28;20269;-71
2022/09/20 07:46:58;;;;;;;0.60;0.60;;;14.90;99.90;15.90;102224.00;;;;5015228;28;20305;-71
2022/09/20 07:49:26;;;;;;;0.70;0.70;;;15.00;99.90;15.80;102233.00;;;;5015385;28;20224;-70
2022/09/20 07:51:58;;;;;;;0.63;0.63;;;15.00;99.90;16.10;102229.00;;;;5014971;28;20202;-70
2022/09/20 07:54:35;;;;;;;0.60;0.60;;;15.10;99.90;16.10;102231.00;;;;4998497;28;20220;-69
2022/09/20 07:57:09;;;;;;;0.40;0.40;;;15.10;99.90;14.20;102152.00;;;;5014908;28;20181;-70
2022/09/20 07:59:34;;;;;;;1.43;1.43;;;14.50;99.90;14.20;102209.00;;;;5015163;28;20190;-70
2022/09/20 08:02:13;;;;;;;0.50;0.50;;;13.90;99.90;13.60;102218.00;;;;5014851;28;20231;-70
2022/09/20 08:04:46;;;;;;;0.40;0.40;;;13.60;99.90;13.50;102216.00;;;;5014686;28;20324;-70
2022/09/20 08:07:11;;;;;;;6.03;1.60;;;13.30;99.90;14.00;102213.00;;;;5015749;28;20227;-70
2022/09/20 08:09:43;;;;;;;1.20;1.13;;;13.40;99.90;13.60;102219.00;;;;5015846;28;20172;-70
2022/09/20 08:12:09;;;;;;;0.83;0.73;;;13.30;99.90;13.50;102211.00;;;;5014566;28;20694;-71
2022/09/20 08:14:43;;;;;;;0.83;0.80;;;13.20;99.90;14.00;102226.00;;;;5014687;28;20641;-71
2022/09/20 08:17:10;;;;;;;1.40;0.87;;;13.50;99.90;14.00;102165.00;;;;5014384;28;20185;-71
2022/09/20 08:19:38;;;;;;;1.87;1.73;;;13.70;99.90;15.20;102220.00;;;;4998115;28;20280;-71
2022/09/20 08:22:05;;;;;;;0.30;0.30;;;14.40;99.90;15.70;102231.00;;;;5014601;28;20201;-71
2022/09/20 08:24:37;;;;;;;0.30;0.30;;;15.00;99.90;17.60;102247.00;;;;4998021;28;20193;-71
2022/09/20 08:27:03;;;;;;;1.13;1.13;;;16.20;99.90;16.60;102254.00;;;;5014302;28;20183;-71
2022/09/20 08:29:34;;;;;;;0.60;0.60;;;16.20;99.90;15.90;102242.00;;;;5014353;28;20684;-70
2022/09/20 08:32:01;;;;;;;1.80;1.60;;;15.90;99.90;18.20;102266.00;;;;5013817;28;20583;-71
2022/09/20 08:34:27;;;;;;;1.53;0.97;;;17.00;99.90;17.70;102272.00;;;;4998222;28;20180;-72
2022/09/20 08:36:59;;;;;;;1.63;1.53;;;17.50;99.90;17.40;102255.00;;;;5013720;28;20183;-71
2022/09/20 08:39:30;;;;;;;0.20;0.20;;;17.40;99.90;18.60;102276.00;;;;5014269;28;20177;-72
2022/09/20 08:42:26;;;;;;;0.73;0.73;;;17.60;99.90;17.80;102276.00;;;;5014277;28;20232;-71
2022/09/20 08:44:58;;;;;;;0.20;0.20;;;17.40;99.90;16.50;102262.00;;;;5014267;28;20185;-69
2022/09/20 08:47:36;;;;;;;0.93;0.93;;;16.70;99.90;16.30;102255.00;;;;5013739;28;20693;-69
2022/09/20 08:50:09;;;;;;;0.40;0.40;;;16.10;99.90;18.30;102275.00;;;;5014035;28;20278;-69
2022/09/20 08:52:48;;;;;;;0.30;0.30;;;16.90;99.90;19.10;102241.00;;;;4997644;28;20726;-70
2022/09/20 08:55:24;;;;;;;0.30;0.30;;;17.70;99.90;19.40;102251.00;;;;5013696;28;20185;-68
2022/09/20 08:57:56;;;;;;;0.30;0.30;;;18.20;99.90;19.70;102304.00;;;;5013701;28;20180;-70
2022/09/20 09:00:30;;;;;;;0.90;0.90;;;18.30;99.90;19.30;102313.00;;;;5014024;28;20285;-70
2022/09/20 09:03:11;;;;;;;0.30;0.30;;;18.30;99.90;19.80;102326.00;;;;5013577;28;20246;-70
2022/09/20 09:05:46;;;;;;;0.30;0.30;;;18.50;99.90;19.60;102320.00;;;;5013205;28;20430;-70
2022/09/20 09:08:18;;;;;;;0.30;0.30;;;18.50;99.90;19.60;102314.00;;;;5014482;28;20621;-69
2022/09/20 09:10:57;;;;;;;0.50;0.50;;;18.40;99.90;19.50;102324.00;;;;5013552;28;20271;-70
2022/09/20 09:13:41;;;;;;;0.30;0.30;;;18.30;99.90;19.30;102329.00;;;;5014308;28;20628;-69
2022/09/20 09:16:15;;;;;;;2.37;2.27;;;18.40;99.90;18.90;102310.00;;;;5012666;28;20274;-70
2022/09/20 09:18:44;;;;;;;0.30;0.30;;;18.10;99.90;18.80;102307.00;;;;4997109;28;20220;-70
2022/09/20 09:21:24;;;;;;;0.60;0.60;;;18.00;99.90;19.00;102324.00;;;;5013700;28;20220;-70
2022/09/20 09:24:08;;;;;;;0.40;0.40;;;18.00;99.90;19.00;102321.00;;;;5013262;28;20168;-70
2022/09/20 09:26:45;;;;;;;0.30;0.30;;;17.90;99.90;18.60;102308.00;;;;5013582;28;20186;-70
2022/09/20 09:29:23;;;;;;;0.30;0.30;;;17.90;99.90;19.10;102321.00;;;;5014745;28;20255;-70
2022/09/20 09:31:53;;;;;;;0.30;0.30;;;18.00;99.90;18.00;102251.00;;;;5013056;28;20200;-69
2022/09/20 09:34:30;;;;;;;0.30;0.30;;;17.60;99.90;18.10;102308.00;;;;5013260;28;20186;-70
2022/09/20 09:36:57;;;;;;;0.30;0.30;;;17.40;99.90;18.00;102308.00;;;;5012852;28;20182;-70
2022/09/20 09:39:32;;;;;;;0.40;0.40;;;17.40;99.90;18.70;102284.00;;;;5013258;28;20182;-70
2022/09/20 09:42:24;;;;;;;0.40;0.40;;;17.60;99.90;18.90;102331.00;;;;5012935;28;20204;-69
2022/09/20 09:45:27;;;;;;;0.40;0.40;;;17.80;99.90;18.80;102325.00;;;;5012948;28;20196;-71
2022/09/20 09:47:54;;;;;;;0.30;0.30;;;17.80;99.90;19.00;102332.00;;;;5012716;28;20606;-70
2022/09/20 09:50:32;;;;;;;0.30;0.30;;;17.90;99.90;18.80;102347.00;;;;4996966;28;20194;-70
2022/09/20 09:53:22;;;;;;;0.30;0.30;;;17.90;99.90;18.50;102348.00;;;;5012599;28;20214;-70
2022/09/20 09:56:18;;;;;;;0.30;0.30;;;17.70;99.90;18.60;102344.00;;;;5012628;28;20226;-70
2022/09/20 09:59:18;;;;;;;0.30;0.30;;;17.70;99.90;18.80;102361.00;;;;5013838;28;20174;-71
2022/09/20 10:02:15;;;;;;;0.40;0.40;;;17.70;99.90;17.10;102352.00;;;;5012492;28;20677;-70
2022/09/20 10:05:10;;;;;;;0.30;0.30;;;17.20;99.90;16.30;102309.00;;;;5013581;28;20190;-71
2022/09/20 10:08:06;;;;;;;0.87;0.30;;;16.30;99.90;15.90;102321.00;;;;5013242;28;20193;-70
2022/09/20 10:10:51;;;;;;;0.30;0.30;;;15.80;99.90;15.80;102309.00;;;;5013848;28;20181;-70
2022/09/20 10:13:40;;;;;;;0.27;0.27;;;15.60;99.90;16.90;102325.00;;;;5012497;28;20285;-70
2022/09/20 10:16:42;;;;;;;0.50;0.50;;;16.20;99.90;17.20;102336.00;;;;5013537;28;20233;-71
2022/09/20 10:19:38;;;;;;;0.20;0.20;;;16.20;99.90;16.50;102328.00;;;;5012087;28;20214;-70
2022/09/20 10:34:10;;;;;;;0.20;0.20;;;16.30;99.90;16.20;102314.00;;;;5090761;27;20577;-70
2022/09/20 10:36:58;;;;;;;0.20;0.20;;;16.10;99.90;17.00;102325.00;;;;5070204;28;20265;-70
2022/09/20 10:39:37;;;;;;;0.20;0.20;;;16.30;99.90;18.00;102339.00;;;;5086144;28;20224;-70
2022/09/20 10:45:28;;;;;;;0.15;0.15;;;18.00;99.90;20.50;102389.00;;;;5070311;28;20273;-71
2022/09/20 10:48:13;;;;;;;0.10;0.10;;;19.10;99.90;20.00;102393.00;;;;5070657;28;20595;-71
2022/09/20 10:51:23;;;;;;;0.20;0.20;;;19.30;99.90;21.30;102394.00;;;;5070174;28;20181;-70
2022/09/20 10:54:16;;;;;;;0.10;0.10;;;19.70;99.90;22.30;102405.00;;;;5063316;28;20230;-70
2022/09/20 10:56:49;;;;;;;0.10;0.10;;;20.60;99.90;22.10;102399.00;;;;5070215;28;20193;-71
2022/09/20 10:59:50;;;;;;;0.10;0.10;;;21.10;99.90;20.90;102417.00;;;;5086231;28;20201;-71
2022/09/20 11:02:59;;;;;;;0.10;0.10;;;20.50;99.90;22.10;102410.00;;;;5052351;28;20551;-71
2022/09/20 11:05:51;;;;;;;0.10;0.10;;;20.70;99.90;22.30;102411.00;;;;5060753;28;20204;-70
2022/09/20 11:08:25;;;;;;;0.10;0.10;;;21.10;99.90;21.30;102413.00;;;;5069778;28;20181;-70
2022/09/20 11:11:11;;;;;;;0.10;0.10;;;20.90;99.90;21.10;102417.00;;;;5070008;28;20184;-70
2022/09/20 11:13:46;;;;;;;0.30;0.30;;;20.30;99.90;21.10;102407.00;;;;5068526;28;20186;-70
2022/09/20 11:16:27;;;;;;;0.17;0.17;;;20.50;99.90;19.60;102408.00;;;;5085192;28;20762;-69
2022/09/20 11:19:30;;;;;;;0.10;0.10;;;19.40;99.90;20.90;102408.00;;;;5051748;28;20397;-71
2022/09/20 11:22:12;;;;;;;0.10;0.10;;;19.60;99.90;20.40;102406.00;;;;5070004;28;20631;-70
2022/09/20 11:24:50;;;;;;;0.10;0.10;;;19.40;99.90;20.50;102412.00;;;;5069813;28;20192;-70
2022/09/20 11:27:32;;;;;;;0.10;0.10;;;19.50;99.90;20.60;102420.00;;;;5069636;28;20635;-70
2022/09/20 11:30:15;;;;;;;0.10;0.10;;;19.50;99.90;21.00;102428.00;;;;5085263;28;20212;-70
2022/09/20 11:32:54;;;;;;;0.10;0.10;;;19.50;99.90;19.40;102430.00;;;;5084653;28;20212;-69
2022/09/20 11:35:42;;;;;;;0.20;0.20;;;19.40;99.90;19.70;102428.00;;;;5084811;28;20179;-70
2022/09/20 11:38:23;;;;;;;0.20;0.20;;;18.70;99.90;19.30;102408.00;;;;5084981;28;20667;-70
2022/09/20 11:40:56;;;;;;;0.20;0.20;;;18.50;99.90;18.80;102387.00;;;;5084891;28;20179;-69
2022/09/20 11:43:29;;;;;;;0.20;0.20;;;18.40;99.90;19.80;102409.00;;;;5079735;28;20188;-70
2022/09/20 11:46:03;;;;;;;0.20;0.20;;;18.50;99.90;19.70;102417.00;;;;5070992;28;20181;-70
2022/09/20 11:48:42;;;;;;;0.20;0.20;;;18.50;99.90;19.00;102416.00;;;;5054551;28;20205;-70
2022/09/20 11:51:48;;;;;;;0.20;0.20;;;18.30;99.90;18.30;102396.00;;;;5071276;28;20186;-69
2022/09/20 11:54:35;;;;;;;0.20;0.20;;;17.70;99.90;18.80;102406.00;;;;5071332;28;20236;-70
2022/09/20 11:57:17;;;;;;;0.20;0.20;;;17.70;99.90;19.10;102396.00;;;;5037710;28;20646;-70
2022/09/20 11:59:59;;;;;;;0.20;0.20;;;17.90;99.90;19.60;102370.00;;;;5070904;28;20632;-70
2022/09/20 12:02:43;;;;;;;0.20;0.20;;;18.20;99.90;19.10;102358.00;;;;5070362;28;20654;-70
2022/09/20 12:06:04;;;;;;;0.67;0.67;;;18.20;99.90;19.10;102387.00;;;;5071249;28;20181;-69
2022/09/20 12:08:39;;;;;;;0.30;0.30;;;18.20;99.90;19.10;102364.00;;;;5038598;28;20201;-70
2022/09/20 12:11:17;;;;;;;1.47;1.37;;;18.00;99.90;19.00;102359.00;;;;5071266;28;20176;-69
2022/09/20 12:13:56;;;;;;;0.30;0.30;;;18.00;99.90;19.40;102357.00;;;;5070921;28;20203;-69
2022/09/20 12:16:39;;;;;;;0.40;0.40;;;18.10;99.90;18.80;102312.00;;;;5070787;28;20181;-70
2022/09/20 12:19:37;;;;;;;0.40;0.40;;;18.00;99.90;19.60;102317.00;;;;5070989;28;20213;-70
2022/09/20 12:22:12;;;;;;;0.40;0.40;;;18.20;99.90;19.60;102362.00;;;;5037141;28;20673;-69